Caledonia, Canada
Current Conditions -  °F | °C
As of 6:27 PM on Monday 20 Oct 2014 (Local Time) from CYHM Reporting Station
Rain Showers Rain Showers  
Wind Chill: 54°   Ceiling: 2300
Heat Index: 54°   Visibility: 15mi
Dew Point: 46°   Wind: 10mph
Humidity: 77%   Direction: 200°SSW
Pressure: 29.79"   Gusts: NA
Location:  43.07°N, 79.95°W
Report Text: CYHM 202227Z 20009KT 15SM -SHRA OVC023 12/08 A2979 RMK SC8 SLP092
Loading
Personal Weather Stations






























Interactive Weather Map
Tropical Storm Tracking
New forecast layout! Learn more

10-Day Weather Forecast

Advertisements
Track Severe Weather on mobile